Time;durP1;ratioP1;P1;durP2;ratioP2;P2;SDS_P1;SDS_P2;PMS_P1;PMS_P2;Temp;Humidity;BMP_temperature;BMP_pressure;BME280_temperature;BME280_humidity;BME280_pressure;Samples;Min_cycle;Max_cycle;Signal;HPM_P1;HPM_P2
2022/04/28 00:00:03;;;;;;;10.53;9.67;;;;;;;7.78;100.00;101084.47;5018899;28;20233;-52
2022/04/28 00:02:28;;;;;;;10.50;9.60;;;;;;;7.75;100.00;101081.81;5020382;28;20188;-52
2022/04/28 00:04:55;;;;;;;10.60;9.70;;;;;;;7.73;100.00;101086.09;5016823;28;20390;-53
2022/04/28 00:07:20;;;;;;;10.23;9.43;;;;;;;7.74;100.00;101082.66;5023397;28;20192;-53
2022/04/28 00:09:46;;;;;;;9.90;9.10;;;;;;;7.71;100.00;101088.66;5026443;28;20667;-52
2022/04/28 00:12:12;;;;;;;9.87;8.97;;;;;;;7.69;100.00;101081.72;5021121;28;20217;-52
2022/04/28 00:14:38;;;;;;;9.93;9.13;;;;;;;7.68;100.00;101091.16;5015836;28;20210;-52
2022/04/28 00:17:04;;;;;;;10.07;9.17;;;;;;;7.68;100.00;101092.88;5026623;28;20236;-53
2022/04/28 00:19:29;;;;;;;9.70;9.00;;;;;;;7.69;100.00;101092.03;5025447;28;20200;-52
2022/04/28 00:21:55;;;;;;;9.60;8.80;;;;;;;7.67;100.00;101084.28;5018596;28;20187;-52
2022/04/28 00:24:20;;;;;;;10.33;9.43;;;;;;;7.66;100.00;101082.53;5016812;28;20194;-53
2022/04/28 00:26:46;;;;;;;10.43;9.43;;;;;;;7.65;100.00;101083.38;5017333;28;20194;-52
2022/04/28 00:29:11;;;;;;;10.23;9.43;;;;;;;7.67;100.00;101096.28;5021380;28;20190;-53
2022/04/28 00:31:36;;;;;;;9.73;8.83;;;;;;;7.60;100.00;101090.16;5023466;28;20279;-53
2022/04/28 00:34:03;;;;;;;10.10;9.30;;;;;;;7.58;100.00;101091.84;5016464;28;20690;-54
2022/04/28 00:36:28;;;;;;;9.87;8.97;;;;;;;7.55;100.00;101091.81;5016781;28;20248;-53
2022/04/28 00:38:53;;;;;;;9.80;9.00;;;;;;;7.51;100.00;101084.88;5018875;28;20189;-52
2022/04/28 00:41:19;;;;;;;9.13;8.43;;;;;;;7.51;100.00;101088.31;5020109;28;20209;-53
2022/04/28 00:43:51;;;;;;;9.33;8.53;;;;;;;7.51;100.00;101082.31;5015029;28;20589;-52
2022/04/28 00:46:18;;;;;;;10.23;9.33;;;;;;;7.51;100.00;101085.72;5015227;28;20208;-53
2022/04/28 00:51:30;;;;;;;10.27;9.37;;;;;;;7.54;100.00;101090.09;5018627;28;20272;-52
2022/04/28 00:53:57;;;;;;;10.97;10.07;;;;;;;7.53;100.00;101085.78;5018813;28;20209;-53
2022/04/28 00:56:23;;;;;;;9.90;9.10;;;;;;;7.53;100.00;101083.19;5016474;28;20232;-52
2022/04/28 00:58:49;;;;;;;10.13;9.27;;;;;;;7.51;100.00;101082.31;5014797;28;20204;-52
2022/04/28 01:01:15;;;;;;;10.43;9.37;;;;;;;7.51;100.00;101077.16;5011665;28;20218;-52
2022/04/28 01:03:40;;;;;;;10.07;9.30;;;;;;;7.50;100.00;101075.41;5015921;28;20192;-53
2022/04/28 01:06:07;;;;;;;10.40;9.47;;;;;;;7.50;100.00;101080.56;5021231;28;20195;-54
2022/04/28 01:08:32;;;;;;;9.90;9.10;;;;;;;7.47;100.00;101071.94;5011444;28;20655;-53
2022/04/28 01:10:59;;;;;;;10.80;9.80;;;;;;;7.50;100.00;101078.84;5017489;28;20313;-52
2022/04/28 01:13:24;;;;;;;10.00;9.20;;;;;;;7.47;100.00;101077.09;5020310;28;20203;-52
2022/04/28 01:15:50;;;;;;;10.07;9.23;;;;;;;7.45;100.00;101083.91;5020983;28;20689;-52
2022/04/28 01:18:17;;;;;;;9.70;9.00;;;;;;;7.47;100.00;101083.97;5023485;28;20689;-52
2022/04/28 01:20:43;;;;;;;10.60;9.70;;;;;;;7.46;100.00;101079.66;5024236;28;20613;-52
2022/04/28 01:23:11;;;;;;;10.67;9.77;;;;;;;7.49;100.00;101084.81;5032737;28;20181;-52
2022/04/28 01:25:36;;;;;;;10.83;9.90;;;;;;;7.48;100.00;101080.56;5025406;28;20180;-53
2022/04/28 01:28:02;;;;;;;10.67;9.77;;;;;;;7.47;100.00;101078.81;5022732;28;20211;-53
2022/04/28 01:30:27;;;;;;;9.77;8.97;;;;;;;7.45;100.00;101080.50;5023076;28;20779;-54
2022/04/28 01:32:54;;;;;;;9.30;8.50;;;;;;;7.45;100.00;101081.34;5020337;28;20269;-52
2022/04/28 01:35:20;;;;;;;10.13;9.23;;;;;;;7.46;100.00;101082.22;5018645;28;20227;-52
2022/04/28 01:37:45;;;;;;;10.23;9.33;;;;;;;7.46;100.00;101079.66;5022824;28;22027;-52
2022/04/28 01:40:16;;;;;;;10.10;9.30;;;;;;;7.41;100.00;101084.69;5028902;28;20231;-52
2022/04/28 01:42:42;;;;;;;10.20;9.40;;;;;;;7.38;100.00;101074.38;5025935;28;20594;-54
2022/04/28 01:45:09;;;;;;;10.37;9.47;;;;;;;7.40;100.00;101076.97;5026500;28;20206;-52
2022/04/28 01:47:35;;;;;;;10.03;9.13;;;;;;;7.43;100.00;101075.28;5023417;28;20791;-53
2022/04/28 01:50:01;;;;;;;9.63;8.83;;;;;;;7.41;100.00;101082.13;5022213;28;20598;-53
2022/04/28 01:55:10;;;;;;;9.47;8.67;;;;;;;7.35;100.00;101081.16;5022312;28;20271;-52
2022/04/28 01:57:36;;;;;;;9.70;8.90;;;;;;;7.32;100.00;101071.69;5019745;28;20210;-52
2022/04/28 02:00:03;;;;;;;10.50;9.60;;;;;;;7.33;100.00;101076.00;5014932;28;20216;-52
2022/04/28 02:02:29;;;;;;;9.60;8.80;;;;;;;7.29;100.00;101080.22;5017098;28;20193;-52
2022/04/28 02:04:58;;;;;;;9.13;8.37;;;;;;;7.26;100.00;101079.31;5024022;28;20682;-52
2022/04/28 02:07:27;;;;;;;8.70;7.97;;;;;;;7.33;100.00;101083.72;5021916;28;20183;-52
2022/04/28 02:09:53;;;;;;;9.47;8.77;;;;;;;7.33;100.00;101078.56;5023866;28;20269;-52
2022/04/28 02:12:18;;;;;;;9.90;9.10;;;;;;;7.42;100.00;101085.59;5020537;28;20193;-52
2022/04/28 02:14:45;;;;;;;9.10;8.40;;;;;;;7.45;100.00;101090.78;5024504;28;20241;-52
2022/04/28 02:17:10;;;;;;;9.80;9.00;;;;;;;7.43;100.00;101085.59;5019922;28;20282;-52
2022/04/28 02:19:36;;;;;;;9.50;8.70;;;;;;;7.40;100.00;101088.16;5024525;28;20226;-52
2022/04/28 02:22:02;;;;;;;9.27;8.47;;;;;;;7.39;100.00;101091.56;5027579;28;20227;-52
2022/04/28 02:24:28;;;;;;;9.57;8.77;;;;;;;7.43;100.00;101089.91;5025212;28;20197;-52
2022/04/28 02:26:53;;;;;;;9.90;9.00;;;;;;;7.42;100.00;101091.59;5023770;28;20780;-52
2022/04/28 02:29:19;;;;;;;9.00;8.20;;;;;;;7.43;100.00;101097.63;5020133;28;20197;-53
2022/04/28 02:31:44;;;;;;;9.40;8.63;;;;;;;7.43;100.00;101097.63;5021003;28;20202;-53
2022/04/28 02:34:10;;;;;;;9.00;8.20;;;;;;;7.39;100.00;101095.81;5020409;28;20298;-53
2022/04/28 02:36:36;;;;;;;9.33;8.43;;;;;;;7.40;100.00;101098.44;5016102;28;20199;-52
2022/04/28 02:39:01;;;;;;;9.20;8.43;;;;;;;7.37;100.00;101100.97;5020544;28;20186;-53
2022/04/28 02:41:27;;;;;;;9.60;8.77;;;;;;;7.36;100.00;101095.78;5024241;28;20221;-52
2022/04/28 02:43:52;;;;;;;8.67;7.87;;;;;;;7.30;100.00;101094.84;5019033;28;20197;-53
2022/04/28 02:46:18;;;;;;;8.87;8.10;;;;;;;7.27;100.00;101091.31;5019836;28;20188;-52
2022/04/28 02:48:44;;;;;;;9.30;8.50;;;;;;;7.25;100.00;101098.19;5015810;28;20314;-52
2022/04/28 02:51:10;;;;;;;9.80;8.90;;;;;;;7.21;100.00;101101.53;5025256;28;20228;-53
2022/04/28 02:53:35;;;;;;;9.77;8.80;;;;;;;7.19;100.00;101090.34;5023806;28;20212;-52
2022/04/28 02:56:01;;;;;;;9.33;8.53;;;;;;;7.16;100.00;101097.16;5017400;28;20193;-52
2022/04/28 02:58:27;;;;;;;8.80;8.10;;;;;;;7.13;100.00;101097.09;5015116;28;20233;-52
2022/04/28 03:00:52;;;;;;;9.17;8.47;;;;;;;7.10;100.00;101094.50;5020164;28;20217;-53
2022/04/28 03:03:18;;;;;;;10.27;9.33;;;;;;;7.08;100.00;101096.16;5019103;28;20275;-52
2022/04/28 03:11:11;;;;;;;9.23;8.43;;;;;;;6.97;100.00;101105.38;5019865;28;20271;-52
2022/04/28 03:13:38;;;;;;;9.43;8.63;;;;;;;6.91;100.00;101100.13;5022876;28;20208;-52
2022/04/28 03:16:04;;;;;;;9.97;9.07;;;;;;;6.86;100.00;101102.63;5020031;28;20196;-52
2022/04/28 03:18:30;;;;;;;9.27;8.47;;;;;;;6.84;100.00;101099.13;5018866;28;20190;-52
2022/04/28 03:20:55;;;;;;;9.57;8.77;;;;;;;6.81;100.00;101111.94;5020473;28;20211;-53
2022/04/28 03:23:21;;;;;;;9.77;8.90;;;;;;;6.79;100.00;101109.34;5016994;28;20248;-52
2022/04/28 03:25:48;;;;;;;10.07;9.27;;;;;;;6.79;100.00;101103.31;5025234;28;20198;-52
2022/04/28 03:28:13;;;;;;;10.00;9.10;;;;;;;6.76;100.00;101113.53;5028683;28;20743;-52
2022/04/28 03:30:39;;;;;;;10.17;9.27;;;;;;;6.70;100.00;101109.13;5012994;28;20317;-52
2022/04/28 03:33:04;;;;;;;10.20;9.30;;;;;;;6.69;100.00;101105.72;5013301;28;20187;-52
2022/04/28 03:35:29;;;;;;;10.53;9.53;;;;;;;6.65;100.00;101109.06;5015296;28;20282;-54
2022/04/28 03:37:55;;;;;;;10.43;9.43;;;;;;;6.67;100.00;101112.53;5015391;28;20199;-52
2022/04/28 03:40:20;;;;;;;10.23;9.37;;;;;;;6.66;100.00;101110.78;5016606;28;20240;-53
2022/04/28 03:42:46;;;;;;;10.80;9.90;;;;;;;6.66;100.00;101113.38;5013133;28;20204;-53
2022/04/28 03:45:11;;;;;;;9.93;8.93;;;;;;;6.64;100.00;101111.59;5018044;28;20189;-53
2022/04/28 03:47:37;;;;;;;9.70;8.90;;;;;;;6.64;100.00;101117.59;5015010;28;20604;-53
2022/04/28 03:50:04;;;;;;;10.40;9.50;;;;;;;6.64;100.00;101112.47;5020871;28;20215;-53
2022/04/28 03:52:30;;;;;;;10.13;9.20;;;;;;;6.64;100.00;101122.75;5014269;28;20279;-53
2022/04/28 03:54:55;;;;;;;10.30;9.40;;;;;;;6.61;100.00;101119.25;5014778;28;20274;-53
2022/04/28 03:57:21;;;;;;;10.10;9.17;;;;;;;6.61;100.00;101124.41;5017109;28;20525;-52
2022/04/28 03:59:46;;;;;;;11.07;10.17;;;;;;;6.61;100.00;101126.97;5015467;28;20308;-52
2022/04/28 04:02:12;;;;;;;9.50;8.70;;;;;;;6.58;100.00;101119.19;5014863;28;20197;-52
2022/04/28 04:04:38;;;;;;;11.17;10.07;;;;;;;6.56;100.00;101126.88;5012231;28;20201;-53
2022/04/28 04:07:03;;;;;;;11.40;10.40;;;;;;;6.53;100.00;101130.22;5024135;28;20188;-53
2022/04/28 04:09:29;;;;;;;10.20;9.30;;;;;;;6.51;100.00;101131.91;5019102;28;20198;-52
2022/04/28 04:11:54;;;;;;;10.73;9.73;;;;;;;6.50;100.00;101137.03;5029868;28;20190;-52
2022/04/28 04:14:19;;;;;;;10.83;9.70;;;;;;;6.52;100.00;101138.78;5013770;28;20226;-52
2022/04/28 04:16:45;;;;;;;11.00;9.93;;;;;;;6.54;100.00;101143.97;5013398;28;20200;-52
2022/04/28 04:19:10;;;;;;;11.30;10.30;;;;;;;6.56;100.00;101142.31;5023011;28;20184;-52
2022/04/28 04:21:36;;;;;;;11.20;10.00;;;;;;;6.55;100.00;101138.84;5027314;28;20667;-52
2022/04/28 04:24:01;;;;;;;11.23;10.23;;;;;;;6.62;100.00;101141.56;5020219;28;20184;-52
2022/04/28 04:26:26;;;;;;;10.77;9.87;;;;;;;6.63;100.00;101149.31;5017860;28;20197;-52
2022/04/28 04:28:52;;;;;;;11.27;10.17;;;;;;;6.68;100.00;101151.97;5022780;28;20316;-53
2022/04/28 04:34:01;;;;;;;10.87;9.87;;;;;;;6.78;100.00;101156.50;5024242;28;20908;-52
2022/04/28 04:36:26;;;;;;;10.70;9.50;;;;;;;6.81;100.00;101155.69;5013539;28;20200;-52
2022/04/28 04:38:52;;;;;;;11.20;10.17;;;;;;;6.86;100.00;101161.78;5015624;28;20654;-52
2022/04/28 04:41:17;;;;;;;10.40;9.50;;;;;;;6.89;100.00;101161.84;5021864;28;20211;-53
2022/04/28 04:43:42;;;;;;;11.37;10.37;;;;;;;6.95;100.00;101163.69;5022133;28;20248;-52
2022/04/28 04:46:08;;;;;;;11.07;9.97;;;;;;;7.01;100.00;101166.38;5023448;28;20281;-53
2022/04/28 04:48:33;;;;;;;11.50;10.30;;;;;;;7.11;100.00;101173.41;5024427;28;20563;-52
2022/04/28 04:50:59;;;;;;;11.10;10.03;;;;;;;7.23;100.00;101182.25;5012222;28;20296;-53
2022/04/28 04:53:25;;;;;;;12.10;10.90;;;;;;;7.40;100.00;101187.69;5019640;28;20208;-53
2022/04/28 04:55:50;;;;;;;10.43;9.53;;;;;;;7.56;100.00;101176.84;5015116;28;20205;-53
2022/04/28 04:58:16;;;;;;;11.83;10.83;;;;;;;7.69;100.00;101192.50;5017902;28;20819;-52
2022/04/28 05:00:41;;;;;;;11.27;10.23;;;;;;;7.75;100.00;101195.19;5021800;28;20226;-52
2022/04/28 05:03:06;;;;;;;10.70;9.77;;;;;;;7.84;100.00;101200.50;5024559;28;20196;-52
2022/04/28 05:05:33;;;;;;;10.77;9.80;;;;;;;8.00;100.00;101195.59;5029329;28;20244;-52
2022/04/28 05:07:58;;;;;;;11.87;10.87;;;;;;;8.03;100.00;101200.81;5022865;28;20257;-52
2022/04/28 05:10:24;;;;;;;11.37;10.37;;;;;;;8.05;100.00;101210.28;5027821;28;20206;-52
2022/04/28 05:12:49;;;;;;;11.33;10.33;;;;;;;8.09;100.00;101206.09;5024462;28;20277;-52
2022/04/28 05:15:15;;;;;;;11.93;10.93;;;;;;;8.14;100.00;101219.03;5016329;28;20709;-52
2022/04/28 05:17:40;;;;;;;12.23;11.03;;;;;;;8.21;100.00;101208.84;5010980;28;20186;-52
2022/04/28 05:20:07;;;;;;;11.50;10.40;;;;;;;8.29;100.00;101219.28;5023096;28;20203;-52
2022/04/28 05:22:34;;;;;;;10.90;10.00;;;;;;;8.38;100.00;101229.72;5020758;28;20357;-52
2022/04/28 05:24:59;;;;;;;12.33;10.83;;;;;;;8.67;100.00;101228.47;5020153;28;20200;-52
2022/04/28 05:27:25;;;;;;;12.23;10.67;;;;;;;9.19;100.00;101215.38;5021854;28;20646;-52
2022/04/28 05:29:51;;;;;;;10.87;9.87;;;;;;;9.84;100.00;101212.56;5026841;28;20204;-52
2022/04/28 05:32:16;;;;;;;10.57;9.67;;;;;;;10.74;99.70;101224.44;5024105;28;20179;-52
2022/04/28 05:34:42;;;;;;;10.73;9.20;;;;;;;11.80;94.30;101230.00;5026532;28;20546;-53
2022/04/28 05:37:07;;;;;;;11.27;8.60;;;;;;;12.66;90.14;101226.47;5027484;28;20323;-53
2022/04/28 05:39:34;;;;;;;9.70;8.70;;;;;;;13.49;87.68;101222.69;5012523;28;20216;-53
2022/04/28 05:42:01;;;;;;;9.43;8.53;;;;;;;14.24;85.64;101224.72;5027724;28;20756;-53
2022/04/28 05:47:10;;;;;;;8.90;8.10;;;;;;;14.84;80.75;101237.19;5024155;28;20971;-53
2022/04/28 05:49:37;;;;;;;9.90;8.90;;;;;;;14.83;80.52;101234.56;5018160;28;20202;-52
2022/04/28 05:52:02;;;;;;;9.70;8.47;;;;;;;15.00;79.75;101237.84;5019483;28;20272;-53
2022/04/28 05:54:28;;;;;;;9.37;8.57;;;;;;;15.38;77.68;101239.13;5024833;28;20347;-53
2022/04/28 05:56:53;;;;;;;8.40;7.70;;;;;;;15.82;77.58;101243.72;5018146;28;20671;-53
2022/04/28 05:59:18;;;;;;;9.33;8.43;;;;;;;15.55;77.44;101240.63;5017368;28;20318;-53
2022/04/28 06:01:44;;;;;;;9.20;8.37;;;;;;;15.36;77.51;101240.00;5021247;28;20202;-53
2022/04/28 06:04:09;;;;;;;9.33;8.53;;;;;;;16.12;76.17;101244.13;5021915;28;20551;-52
2022/04/28 06:06:35;;;;;;;8.70;7.90;;;;;;;16.75;74.72;101244.75;5021702;28;20278;-53
2022/04/28 06:09:00;;;;;;;9.07;8.17;;;;;;;17.00;73.73;101239.06;5015321;28;20192;-53
2022/04/28 06:11:26;;;;;;;8.80;8.07;;;;;;;17.32;72.66;101242.75;5024746;28;20225;-53
2022/04/28 06:13:51;;;;;;;8.53;7.83;;;;;;;17.34;72.79;101240.97;5030461;28;20253;-54
2022/04/28 06:16:17;;;;;;;8.13;7.50;;;;;;;17.74;71.34;101244.44;5028285;28;20193;-53
2022/04/28 06:18:42;;;;;;;9.57;7.73;;;;;;;17.06;71.99;101245.00;5018610;28;20219;-53
2022/04/28 06:21:08;;;;;;;8.07;7.47;;;;;;;17.42;71.84;101246.03;5020279;28;20599;-52
2022/04/28 06:23:33;;;;;;;9.10;8.30;;;;;;;17.47;71.77;101249.41;5028476;28;20206;-52
2022/04/28 06:26:00;;;;;;;9.17;8.10;;;;;;;17.74;71.62;101249.66;5019812;28;20223;-52
2022/04/28 06:28:26;;;;;;;9.23;8.23;;;;;;;17.30;72.22;101248.03;5026968;28;20210;-52
2022/04/28 06:30:51;;;;;;;8.70;7.93;;;;;;;17.01;73.05;101259.06;5017342;28;20203;-53
2022/04/28 06:33:18;;;;;;;8.77;8.00;;;;;;;17.06;71.99;101263.31;5019576;28;20302;-53
2022/04/28 06:35:44;;;;;;;8.53;7.63;;;;;;;17.02;72.40;101259.03;5023612;28;20276;-53
2022/04/28 06:38:09;;;;;;;8.73;7.93;;;;;;;17.21;72.45;101264.78;5022207;28;20267;-53
2022/04/28 06:40:34;;;;;;;8.93;8.07;;;;;;;17.26;71.52;101262.06;5025154;28;20206;-53
2022/04/28 06:43:00;;;;;;;8.67;7.83;;;;;;;17.08;71.96;101254.59;5022071;28;20986;-53
2022/04/28 06:45:25;;;;;;;8.63;7.77;;;;;;;17.26;71.67;101245.47;5021921;28;20230;-52
2022/04/28 06:47:50;;;;;;;8.83;7.13;;;;;;;17.24;71.34;101255.13;5021282;28;20184;-53
2022/04/28 06:50:16;;;;;;;8.00;7.30;;;;;;;17.48;71.05;101249.38;5020347;28;20208;-52
2022/04/28 06:52:41;;;;;;;7.70;7.00;;;;;;;17.53;71.44;101249.25;5021370;28;20274;-52
2022/04/28 06:55:09;;;;;;;7.30;6.70;;;;;;;17.95;70.61;101249.13;5019381;28;20208;-52
2022/04/28 06:57:36;;;;;;;7.67;7.07;;;;;;;17.66;70.82;101261.16;5017804;28;20234;-52
2022/04/28 07:00:03;;;;;;;7.80;7.10;;;;;;;17.44;70.69;101249.47;5021322;28;20213;-52
2022/04/28 07:02:30;;;;;;;7.50;6.90;;;;;;;17.47;70.66;101252.03;5018008;28;20888;-53
2022/04/28 07:04:55;;;;;;;7.70;7.00;;;;;;;17.60;70.16;101252.59;5014678;28;20172;-53
2022/04/28 07:07:21;;;;;;;7.03;6.47;;;;;;;17.93;70.12;101255.31;5023415;28;20266;-53
2022/04/28 07:09:46;;;;;;;7.50;6.63;;;;;;;18.10;69.13;101258.41;5027728;28;20259;-52
2022/04/28 07:12:12;;;;;;;6.63;5.77;;;;;;;18.04;68.77;101253.31;5030441;28;20228;-53
2022/04/28 07:14:38;;;;;;;7.50;6.90;;;;;;;17.75;69.14;101259.25;5028530;28;20235;-53
2022/04/28 07:17:03;;;;;;;6.77;6.03;;;;;;;17.73;70.67;101266.28;5023103;28;20642;-55
2022/04/28 07:19:29;;;;;;;6.63;6.03;;;;;;;17.79;70.68;101268.72;5023813;28;20194;-52
2022/04/28 07:21:54;;;;;;;7.17;6.50;;;;;;;17.70;70.94;101272.41;5024178;28;20209;-53
2022/04/28 07:24:20;;;;;;;7.37;6.67;;;;;;;17.37;71.35;101269.69;5022951;28;20258;-55
2022/04/28 07:26:45;;;;;;;6.57;5.97;;;;;;;17.44;71.80;101268.63;5014325;28;20307;-53
2022/04/28 07:29:11;;;;;;;7.23;6.57;;;;;;;17.55;72.70;101267.53;5021738;28;20181;-52
2022/04/28 07:31:36;;;;;;;7.93;7.13;;;;;;;17.20;72.29;101270.00;5016439;28;20202;-53
2022/04/28 07:34:03;;;;;;;6.77;6.17;;;;;;;17.35;72.68;101280.16;5016090;28;20249;-53
2022/04/28 07:36:28;;;;;;;7.10;6.50;;;;;;;17.23;73.66;101280.41;5013290;28;20195;-53
2022/04/28 07:38:54;;;;;;;7.30;6.60;;;;;;;17.09;73.78;101287.69;5021363;28;20198;-52
2022/04/28 07:41:19;;;;;;;6.67;6.17;;;;;;;16.95;74.15;101280.09;5020045;28;20591;-53
2022/04/28 07:43:44;;;;;;;7.10;6.50;;;;;;;16.96;75.00;101277.47;5023075;28;20634;-52
2022/04/28 07:46:10;;;;;;;6.97;6.27;;;;;;;16.88;75.10;101285.44;5017594;28;20214;-53
2022/04/28 07:48:35;;;;;;;6.70;6.10;;;;;;;16.77;75.40;101277.81;5021977;28;20187;-53
2022/04/28 07:51:00;;;;;;;6.10;5.50;;;;;;;16.41;76.72;101290.63;5020942;28;20222;-53
2022/04/28 07:53:26;;;;;;;5.57;5.07;;;;;;;16.44;76.13;101287.13;5021320;28;20235;-53
2022/04/28 07:58:35;;;;;;;6.73;4.50;;;;;;;16.13;74.78;101279.81;5012530;28;20218;-54
2022/04/28 08:01:01;;;;;;;4.57;4.17;;;;;;;15.98;73.61;101279.16;5018201;28;20212;-53
2022/04/28 08:03:26;;;;;;;5.10;4.60;;;;;;;15.83;75.19;101293.25;5021928;28;20183;-53
2022/04/28 08:05:55;;;;;;;6.13;4.27;;;;;;;15.94;73.51;101287.06;5024587;28;20603;-52
2022/04/28 08:08:21;;;;;;;4.90;4.00;;;;;;;16.07;73.98;101286.00;5016630;28;20226;-53
2022/04/28 08:10:47;;;;;;;3.97;3.67;;;;;;;16.20;74.13;101286.63;5028514;28;20200;-53
2022/04/28 08:13:12;;;;;;;6.03;4.10;;;;;;;16.01;73.77;101291.28;5023999;28;20226;-53
2022/04/28 08:15:38;;;;;;;4.80;4.40;;;;;;;16.05;74.41;101279.94;5021320;28;21030;-52
2022/04/28 08:18:04;;;;;;;6.53;4.10;;;;;;;16.10;74.58;101282.47;5021214;28;20187;-53
2022/04/28 08:20:30;;;;;;;4.70;4.17;;;;;;;16.21;73.74;101288.34;5021068;28;20207;-52
2022/04/28 08:22:55;;;;;;;4.63;4.03;;;;;;;16.18;73.58;101298.00;5018291;28;20279;-52
2022/04/28 08:25:21;;;;;;;5.23;4.40;;;;;;;15.91;73.01;101294.94;5019075;28;20270;-53
2022/04/28 08:27:46;;;;;;;4.40;4.03;;;;;;;15.80;71.50;101295.06;5012656;28;20210;-52
2022/04/28 08:30:12;;;;;;;4.13;3.53;;;;;;;15.67;71.40;101296.97;5018381;28;20199;-53
2022/04/28 08:32:37;;;;;;;4.53;3.70;;;;;;;15.84;72.44;101292.38;5020627;28;20183;-53
2022/04/28 08:35:03;;;;;;;4.07;3.77;;;;;;;15.92;72.19;101300.13;5019534;28;20231;-53
2022/04/28 08:37:28;;;;;;;3.80;3.50;;;;;;;15.91;70.70;101294.94;5016631;28;20241;-53
2022/04/28 08:39:53;;;;;;;3.80;3.50;;;;;;;16.04;71.14;101300.81;5015645;28;20221;-53
2022/04/28 08:42:22;;;;;;;4.27;3.80;;;;;;;16.03;72.69;101299.13;5018307;28;20270;-52
2022/04/28 08:44:49;;;;;;;3.67;3.37;;;;;;;15.94;70.55;101298.34;5016472;28;20634;-53
2022/04/28 08:47:15;;;;;;;5.17;4.27;;;;;;;16.02;71.83;101298.25;5013372;28;20648;-52
2022/04/28 08:49:44;;;;;;;4.17;3.50;;;;;;;16.18;71.29;101293.66;5016807;28;20219;-53
2022/04/28 08:52:11;;;;;;;3.40;3.10;;;;;;;16.07;69.24;101301.66;5020257;28;20724;-52
2022/04/28 08:54:39;;;;;;;4.23;3.83;;;;;;;16.11;66.36;101308.53;5017493;28;20214;-53
2022/04/28 08:57:05;;;;;;;4.43;2.93;;;;;;;16.26;67.89;101306.59;5025141;28;20187;-52
2022/04/28 08:59:30;;;;;;;3.33;3.10;;;;;;;16.27;66.80;101301.31;5015287;28;20283;-53
2022/04/28 09:01:55;;;;;;;3.80;3.40;;;;;;;16.45;68.94;101301.91;5015041;28;20180;-53
2022/04/28 09:04:22;;;;;;;3.80;3.20;;;;;;;16.41;67.32;101301.06;5016458;28;20268;-53
2022/04/28 09:06:55;;;;;;;5.20;3.23;;;;;;;16.35;64.65;101305.53;5012820;28;20192;-53
2022/04/28 09:09:21;;;;;;;3.43;2.83;;;;;;;16.43;66.32;101308.91;5013670;28;20982;-54
2022/04/28 09:11:48;;;;;;;5.10;3.20;;;;;;;16.41;63.84;101302.84;5022079;28;20180;-53
2022/04/28 09:14:15;;;;;;;3.40;2.90;;;;;;;16.49;64.30;101302.72;5022274;28;20212;-53
2022/04/28 09:17:00;;;;;;;3.27;2.90;;;;;;;16.61;63.59;101303.38;5023418;28;20187;-53
2022/04/28 09:19:33;;;;;;;3.03;2.83;;;;;;;16.72;63.97;101291.84;5019713;28;20935;-53
2022/04/28 09:22:09;;;;;;;2.90;2.67;;;;;;;16.90;63.97;101299.34;5021052;28;20233;-53
2022/04/28 09:24:36;;;;;;;3.17;2.87;;;;;;;17.00;62.54;101297.47;5017125;28;20183;-52
2022/04/28 09:27:02;;;;;;;2.97;2.70;;;;;;;17.04;63.62;101296.47;5019064;28;20924;-53
2022/04/28 09:29:39;;;;;;;2.67;2.47;;;;;;;17.00;62.36;101302.69;5017536;28;20195;-53
2022/04/28 09:32:13;;;;;;;5.07;3.10;;;;;;;16.84;61.75;101311.69;5017354;28;20244;-51
2022/04/28 09:35:09;;;;;;;3.20;2.90;;;;;;;16.81;59.13;101304.75;5022209;28;20218;-53
2022/04/28 09:37:35;;;;;;;2.80;2.60;;;;;;;16.91;57.31;101302.81;5018849;28;20199;-53
2022/04/28 09:42:47;;;;;;;3.57;2.83;;;;;;;16.92;59.21;101296.69;5027545;28;20312;-53
2022/04/28 09:45:13;;;;;;;2.50;2.30;;;;;;;17.03;59.61;101297.38;5026311;28;20267;-53
2022/04/28 09:47:38;;;;;;;2.87;2.57;;;;;;;17.16;58.62;101300.63;5018936;28;20184;-53
2022/04/28 09:50:14;;;;;;;3.70;2.77;;;;;;;17.25;57.72;101301.31;5022279;28;20713;-54
2022/04/28 09:52:42;;;;;;;3.40;3.10;;;;;;;17.25;58.60;101298.69;5024371;28;20198;-53
2022/04/28 09:55:08;;;;;;;3.17;2.90;;;;;;;17.38;60.01;101289.72;5019425;28;20612;-53
2022/04/28 09:57:33;;;;;;;3.93;3.37;;;;;;;17.26;63.06;101280.38;5018763;28;20193;-54
2022/04/28 10:00:00;;;;;;;4.10;3.67;;;;;;;17.44;61.25;101276.47;5022844;28;20222;-53
2022/04/28 10:02:26;;;;;;;3.20;2.87;;;;;;;17.57;60.80;101290.16;5022467;28;20249;-53
2022/04/28 10:04:53;;;;;;;4.37;2.90;;;;;;;17.60;57.68;101290.09;5023804;28;20680;-51
2022/04/28 10:07:20;;;;;;;3.17;2.87;;;;;;;17.50;57.63;101283.34;5019776;28;20185;-51
2022/04/28 10:09:48;;;;;;;2.93;2.73;;;;;;;17.51;56.52;101283.31;5019868;28;20259;-51
2022/04/28 10:12:22;;;;;;;4.07;2.63;;;;;;;17.62;56.01;101277.81;5022980;28;20563;-53
2022/04/28 10:14:49;;;;;;;2.83;2.63;;;;;;;17.79;59.03;101287.06;5028029;28;20289;-53
2022/04/28 10:17:19;;;;;;;7.37;3.33;;;;;;;17.77;56.76;101278.41;5024648;28;20202;-51
2022/04/28 10:19:55;;;;;;;3.33;2.60;;;;;;;18.02;55.87;101265.59;5022807;28;20211;-51
2022/04/28 10:22:29;;;;;;;3.23;2.80;;;;;;;17.91;54.00;101294.66;5021803;28;20273;-52
2022/04/28 10:33:11;;;;;;;2.93;2.70;;;;;;;18.04;55.08;101265.56;5018319;28;20761;-53
2022/04/28 10:35:44;;;;;;;3.40;2.67;;;;;;;18.07;55.30;101268.13;5022409;28;20226;-52
2022/04/28 10:38:12;;;;;;;3.10;2.80;;;;;;;18.08;55.16;101259.34;5015752;28;20195;-53
2022/04/28 10:40:57;;;;;;;2.63;2.20;;;;;;;18.31;56.27;101263.16;5022841;28;20210;-53
2022/04/28 10:43:25;;;;;;;3.73;3.27;;;;;;;18.21;59.69;101273.88;5018423;28;20967;-53
2022/04/28 10:45:52;;;;;;;4.10;3.00;;;;;;;18.17;59.37;101269.59;5035232;28;20217;-54
2022/04/28 10:48:24;;;;;;;3.00;2.70;;;;;;;18.24;56.22;101268.53;5016031;28;20226;-53
2022/04/28 10:51:06;;;;;;;3.20;2.80;;;;;;;18.15;56.62;101271.41;5015789;28;20224;-53
2022/04/28 10:53:33;;;;;;;3.63;2.83;;;;;;;18.31;58.79;101271.84;5021113;28;20819;-53
2022/04/28 10:56:07;;;;;;;3.07;2.87;;;;;;;18.45;58.46;101260.19;5019069;28;20657;-53
2022/04/28 10:58:33;;;;;;;3.57;2.93;;;;;;;18.38;56.64;101280.41;5015970;28;20197;-53
2022/04/28 11:01:00;;;;;;;3.60;2.90;;;;;;;18.19;56.13;101273.03;5017576;28;20227;-52
2022/04/28 11:03:51;;;;;;;3.33;2.80;;;;;;;18.17;56.36;101280.06;5022900;28;20193;-52
2022/04/28 11:06:19;;;;;;;3.60;3.30;;;;;;;18.10;53.88;101273.25;5020993;28;20200;-52
2022/04/28 11:08:47;;;;;;;4.07;3.03;;;;;;;18.13;56.69;101276.69;5022695;28;20185;-52
2022/04/28 11:11:14;;;;;;;6.03;3.10;;;;;;;18.08;55.51;101261.94;5027200;28;20211;-52
2022/04/28 11:13:43;;;;;;;3.20;2.90;;;;;;;18.02;54.56;101264.75;5024516;28;20218;-53
2022/04/28 11:16:10;;;;;;;3.97;2.97;;;;;;;18.11;56.42;101278.47;5022172;28;20188;-52
2022/04/28 11:18:35;;;;;;;5.30;3.03;;;;;;;18.15;56.22;101279.25;5021005;28;20188;-53
2022/04/28 11:21:03;;;;;;;3.10;2.80;;;;;;;18.17;56.61;101269.59;5016785;28;20210;-53
2022/04/28 11:23:33;;;;;;;4.40;3.30;;;;;;;18.16;55.50;101270.50;5019471;28;20198;-52
2022/04/28 11:25:59;;;;;;;3.80;3.47;;;;;;;18.13;55.57;101286.28;5020041;28;20187;-52
2022/04/28 11:28:26;;;;;;;3.43;3.10;;;;;;;17.98;55.65;101288.38;5017631;28;20188;-53
2022/04/28 11:30:52;;;;;;;4.03;3.70;;;;;;;17.94;56.03;101291.09;5022226;28;20202;-51
2022/04/28 11:33:21;;;;;;;4.70;3.77;;;;;;;18.02;57.85;101290.94;5022465;28;20533;-53
2022/04/28 11:35:46;;;;;;;4.60;3.87;;;;;;;18.00;56.64;101277.84;5019592;28;20223;-52
2022/04/28 11:38:12;;;;;;;4.07;3.63;;;;;;;18.07;57.62;101257.63;5022836;28;20641;-50
2022/04/28 11:40:39;;;;;;;5.07;3.80;;;;;;;18.20;58.17;101260.78;5021941;28;20214;-51
2022/04/28 11:43:05;;;;;;;4.20;3.80;;;;;;;18.31;59.40;101265.78;5016388;28;20189;-51
2022/04/28 11:45:32;;;;;;;5.13;3.63;;;;;;;18.38;59.52;101276.06;5018268;28;20190;-52
2022/04/28 11:48:00;;;;;;;4.03;3.63;;;;;;;18.42;57.74;101267.22;5021613;28;20524;-53